Motherwell, United Kingdom

4:52 PM GMT on February 12, 2016 (GMT +0000)
INORTHLA26 | | Change Station
CLOSE
Current Station
Personal Weather Station
Location: Motherwell, North lanarkshire
Elevation: 279 ft
Nearby Weather Stations

Elev 279 ft 55.78 °N, 3.97 °W | Updated 7 days ago

Partly Cloudy
Partly Cloudy
35 °F
Feels Like 30 °F
N
7
Wind Variable Wind from ENE
Gusts 12 mph

Today
High -- | Low -- °F
--% Chance of Precip.
Yesterday
High -- | Low -- °F
Precip. -- in
Pressure 29.44 in
Visibility 6.2 miles
Clouds Scattered Clouds 1200 ft
Windchill 30 °F
Dew Point 33 °F
Humidity 92%
Rainfall in
Snow Depth Not available.
7:48 AM 5:12 PM
Waxing Crescent, 22% visible
METAR EGPH 121620Z AUTO 06005KT 9999 SCT012 04/02 Q0997
Pressure 29.44 in
Visibility 6.2 miles
Clouds Scattered Clouds 1200 ft
Windchill 30 °F
Dew Point 33 °F
Humidity 92%
Rainfall in
Snow Depth Not available.
7:48 AM 5:12 PM
Waxing Crescent, 22% visible
METAR EGPH 121620Z AUTO 06005KT 9999 SCT012 04/02 Q0997

10-Day Weather Forecast

Almanac

Astronomy

Feb. 12, 2016 Rise Set
Actual Time
Civil Twilight
Nautical Twilight
Astronomical Twilight
Moon
Length of Visible Light
Length of Day
Tomorrow will be .
, % of the Moon is Illuminated

Today's Extremes

Country Highs Country Lows

Community

WunderPhotos

Upload Photos

1,892,354 photos uploaded!

WunderBlog® & News

Nearby

Air Quality

  Air Quality AQ Index Pollutant
Not available.

Snow Depth

Station Depth Elevation

Earthquake Activity

City Distance Mag. Time & Date
Minimum magnitude displayed is 2.5.

Coastal Water Temperatures

Place Temperature

Stations

Nearby Weather Stations

Station Location Temp. Windchill Dew Point Humidity Wind Precip. Elev Updated Type